createdAt,value
2023-01-13T00:00:30.939Z,5.77
2023-01-13T00:02:58.908Z,7.40
2023-01-13T00:05:27.555Z,9.07
2023-01-13T00:07:55.519Z,7.47
2023-01-13T00:10:24.844Z,7.03
2023-01-13T00:12:53.484Z,8.70
2023-01-13T00:15:21.440Z,7.50
2023-01-13T00:17:49.874Z,6.23
2023-01-13T00:20:18.545Z,9.80
2023-01-13T00:22:46.458Z,9.50
2023-01-13T00:25:14.629Z,8.60
2023-01-13T00:27:44.034Z,6.47
2023-01-13T00:30:12.904Z,7.33
2023-01-13T00:32:40.829Z,8.63
2023-01-13T00:35:09.802Z,5.30
2023-01-13T00:37:39.282Z,6.67
2023-01-13T00:40:08.663Z,5.50
2023-01-13T00:42:54.099Z,5.70
2023-01-13T00:45:23.377Z,5.73
2023-01-13T00:47:51.343Z,6.40
2023-01-13T00:50:19.410Z,5.33
2023-01-13T00:52:47.460Z,5.83
2023-01-13T00:55:15.503Z,6.23
2023-01-13T00:57:43.451Z,7.00
2023-01-13T01:00:12.668Z,5.80
2023-01-13T01:02:42.043Z,4.80
2023-01-13T01:05:10.787Z,6.37
2023-01-13T01:07:38.723Z,4.70
2023-01-13T01:10:07.548Z,3.40
2023-01-13T01:12:36.007Z,5.47
2023-01-13T01:15:06.039Z,4.37
2023-01-13T01:17:36.066Z,3.60
2023-01-13T01:20:06.089Z,7.33
2023-01-13T01:22:34.011Z,6.20
2023-01-13T01:25:01.973Z,3.07
2023-01-13T01:27:29.880Z,3.47
2023-01-13T01:29:57.841Z,3.23
2023-01-13T01:32:25.776Z,7.13
2023-01-13T01:34:53.697Z,4.53
2023-01-13T01:37:22.975Z,4.13
2023-01-13T01:39:50.930Z,4.27
2023-01-13T01:42:37.424Z,6.57
2023-01-13T01:45:16.372Z,3.73
2023-01-13T01:47:45.166Z,6.60
2023-01-13T01:50:13.599Z,4.67
2023-01-13T01:52:46.593Z,6.30
2023-01-13T01:55:18.125Z,5.00
2023-01-13T01:57:50.389Z,5.97
2023-01-13T02:00:18.677Z,5.90
2023-01-13T02:02:49.230Z,4.70
2023-01-13T02:05:18.093Z,4.80
2023-01-13T02:07:50.273Z,6.73
2023-01-13T02:10:21.226Z,6.60
2023-01-13T02:12:48.932Z,7.67
2023-01-13T02:15:19.080Z,5.47
2023-01-13T02:18:07.425Z,7.73
2023-01-13T02:21:10.246Z,12.20
2023-01-13T02:24:26.231Z,8.60
2023-01-13T02:27:34.136Z,11.37
2023-01-13T02:30:32.036Z,12.73
2023-01-13T02:33:10.790Z,9.90
2023-01-13T02:35:47.358Z,16.37
2023-01-13T02:38:17.462Z,14.97
2023-01-13T02:40:55.732Z,9.40
2023-01-13T02:43:49.472Z,13.40
2023-01-13T02:46:24.474Z,12.47
2023-01-13T02:48:55.535Z,15.07
2023-01-13T02:51:27.884Z,15.40
2023-01-13T02:54:01.776Z,15.70
2023-01-13T02:56:31.275Z,11.77
2023-01-13T02:59:00.466Z,16.13
2023-01-13T03:01:30.349Z,15.57
2023-01-13T03:03:58.428Z,14.33
2023-01-13T03:06:39.136Z,14.13
2023-01-13T03:09:11.660Z,16.37
2023-01-13T03:11:50.409Z,17.93
2023-01-13T03:14:31.377Z,13.50
2023-01-13T03:17:14.638Z,13.97
2023-01-13T03:19:47.690Z,13.23
2023-01-13T03:22:22.759Z,15.93
2023-01-13T03:24:53.711Z,15.93
2023-01-13T03:27:27.233Z,15.20
2023-01-13T03:30:00.083Z,18.63
2023-01-13T03:32:34.229Z,11.97
2023-01-13T03:35:06.832Z,20.03
2023-01-13T03:37:36.986Z,18.97
2023-01-13T03:40:11.803Z,19.17
2023-01-13T03:43:02.587Z,9.40
2023-01-13T03:45:31.372Z,16.37
2023-01-13T03:48:04.206Z,17.20
2023-01-13T03:50:38.328Z,17.10
2023-01-13T03:53:11.430Z,17.07
2023-01-13T03:55:43.972Z,19.30
2023-01-13T03:58:16.340Z,19.53
2023-01-13T04:00:48.932Z,18.87
2023-01-13T04:03:24.272Z,17.40
2023-01-13T04:05:59.534Z,19.50
2023-01-13T04:08:29.195Z,13.37
2023-01-13T04:11:03.562Z,22.03
2023-01-13T04:13:36.816Z,16.50
2023-01-13T04:16:07.927Z,20.97
2023-01-13T04:18:39.320Z,16.57
2023-01-13T04:21:08.561Z,17.07
2023-01-13T04:23:36.537Z,16.07
2023-01-13T04:26:04.759Z,17.07
2023-01-13T04:28:33.528Z,13.77
2023-01-13T04:31:01.701Z,18.50
2023-01-13T04:33:29.673Z,17.57
2023-01-13T04:35:59.160Z,18.53
2023-01-13T04:38:28.160Z,20.17
2023-01-13T04:40:56.143Z,19.13
2023-01-13T04:43:24.188Z,18.40
2023-01-13T04:45:52.277Z,15.33
2023-01-13T04:48:20.494Z,16.97
2023-01-13T04:50:48.456Z,15.43
2023-01-13T04:53:17.796Z,18.83
2023-01-13T04:55:47.845Z,13.60
2023-01-13T04:58:15.859Z,16.37
2023-01-13T05:00:43.931Z,18.33
2023-01-13T05:03:11.918Z,16.17
2023-01-13T05:05:40.006Z,17.47
2023-01-13T05:08:09.029Z,19.73
2023-01-13T05:10:38.463Z,17.07
2023-01-13T05:13:23.993Z,17.33
2023-01-13T05:16:11.337Z,15.43
2023-01-13T05:18:39.528Z,15.10
2023-01-13T05:21:27.697Z,16.47
2023-01-13T05:24:13.335Z,17.03
2023-01-13T05:26:42.907Z,15.77
2023-01-13T05:29:10.935Z,17.93
2023-01-13T05:31:38.870Z,21.30
2023-01-13T05:34:06.815Z,24.87
2023-01-13T05:36:34.777Z,18.67
2023-01-13T05:39:02.728Z,17.90
2023-01-13T05:41:48.304Z,21.60
2023-01-13T05:44:17.604Z,17.50
2023-01-13T05:46:45.648Z,17.93
2023-01-13T05:49:13.651Z,16.40
2023-01-13T05:51:41.676Z,17.17
2023-01-13T05:54:09.619Z,18.60
2023-01-13T05:56:37.550Z,20.10
2023-01-13T05:59:05.600Z,20.00
2023-01-13T06:01:37.030Z,14.77
2023-01-13T06:04:05.269Z,13.87
2023-01-13T06:06:33.283Z,19.30
2023-01-13T06:09:01.259Z,21.70
2023-01-13T06:11:29.271Z,21.80
2023-01-13T06:13:57.224Z,18.50
2023-01-13T06:16:25.381Z,21.37
2023-01-13T06:18:54.840Z,18.50
2023-01-13T06:21:22.824Z,21.03
2023-01-13T06:23:50.937Z,17.00
2023-01-13T06:26:21.655Z,19.23
2023-01-13T06:28:50.076Z,23.67
2023-01-13T06:31:18.309Z,14.73
2023-01-13T06:33:50.628Z,22.37
2023-01-13T06:36:23.423Z,18.03
2023-01-13T06:38:54.695Z,20.63
2023-01-13T06:41:43.190Z,17.77
2023-01-13T06:44:10.399Z,19.73
2023-01-13T06:46:38.435Z,20.73
2023-01-13T06:49:07.323Z,17.53
2023-01-13T06:51:36.648Z,19.23
2023-01-13T06:54:04.947Z,15.27
2023-01-13T06:56:33.004Z,21.80
2023-01-13T06:59:00.988Z,17.83
2023-01-13T07:01:29.364Z,18.93
2023-01-13T07:03:58.181Z,18.80
2023-01-13T07:06:26.283Z,14.73
2023-01-13T07:08:55.649Z,17.83
2023-01-13T07:11:23.894Z,18.77
2023-01-13T07:14:09.475Z,18.17
2023-01-13T07:16:37.594Z,15.93
2023-01-13T07:19:05.558Z,20.97
2023-01-13T07:21:33.759Z,18.27
2023-01-13T07:24:03.143Z,23.13
2023-01-13T07:26:31.228Z,16.13
2023-01-13T07:28:59.521Z,16.10
2023-01-13T07:31:27.592Z,14.40
2023-01-13T07:33:55.635Z,18.53
2023-01-13T07:36:23.662Z,22.77
2023-01-13T07:38:53.912Z,15.90
2023-01-13T07:41:42.330Z,20.50
2023-01-13T07:44:11.278Z,22.17
2023-01-13T07:46:39.541Z,19.87
2023-01-13T07:49:08.254Z,15.13
2023-01-13T07:51:37.310Z,19.10
2023-01-13T07:54:05.826Z,13.70
2023-01-13T07:56:35.230Z,18.43
2023-01-13T07:59:03.287Z,17.03
2023-01-13T08:01:31.913Z,19.93
2023-01-13T08:04:00.160Z,17.67
2023-01-13T08:06:28.273Z,19.17
2023-01-13T08:08:56.275Z,17.63
2023-01-13T08:11:24.359Z,19.60
2023-01-13T08:13:56.862Z,17.63
2023-01-13T08:16:25.893Z,15.87
2023-01-13T08:18:53.894Z,19.03
2023-01-13T08:21:21.852Z,17.37
2023-01-13T08:23:49.856Z,13.83
2023-01-13T08:26:19.310Z,17.43
2023-01-13T08:28:47.592Z,16.10
2023-01-13T08:31:19.829Z,17.53
2023-01-13T08:33:48.182Z,17.43
2023-01-13T08:36:18.314Z,15.67
2023-01-13T08:38:46.374Z,17.57
2023-01-13T08:41:37.224Z,13.77
2023-01-13T08:44:06.543Z,16.77
2023-01-13T08:46:36.072Z,19.07
2023-01-13T08:49:04.374Z,15.90
2023-01-13T08:51:32.389Z,13.37
2023-01-13T08:54:00.357Z,15.03
2023-01-13T08:56:28.371Z,19.87
2023-01-13T08:58:59.109Z,16.30
2023-01-13T09:01:27.765Z,13.00
2023-01-13T09:03:57.289Z,17.67
2023-01-13T09:06:25.360Z,15.10
2023-01-13T09:08:53.435Z,18.83
2023-01-13T09:11:43.438Z,11.90
2023-01-13T09:14:11.416Z,17.40
2023-01-13T09:16:39.443Z,13.33
2023-01-13T09:19:08.996Z,13.63
2023-01-13T09:21:37.136Z,15.70
2023-01-13T09:24:05.487Z,15.10
2023-01-13T09:26:33.490Z,16.50
2023-01-13T09:29:01.491Z,12.50
2023-01-13T09:31:29.784Z,12.20
2023-01-13T09:34:15.092Z,11.83
2023-01-13T09:36:44.527Z,9.63
2023-01-13T09:39:12.498Z,11.07
2023-01-13T09:42:02.907Z,13.87
2023-01-13T09:44:45.184Z,13.23
2023-01-13T09:47:19.759Z,12.13
2023-01-13T09:49:48.321Z,13.10
2023-01-13T09:52:19.770Z,10.93
2023-01-13T09:54:52.825Z,13.37
2023-01-13T09:57:22.491Z,14.83
2023-01-13T09:59:50.607Z,12.37
2023-01-13T10:02:35.401Z,11.50
2023-01-13T10:05:05.619Z,12.10
2023-01-13T10:07:38.072Z,11.37
2023-01-13T10:10:14.314Z,10.17
2023-01-13T10:13:03.789Z,10.90
2023-01-13T10:15:31.755Z,10.40
2023-01-13T10:18:08.330Z,11.67
2023-01-13T10:20:53.437Z,10.20
2023-01-13T10:23:53.064Z,9.00
2023-01-13T10:26:37.229Z,10.37
2023-01-13T10:29:18.786Z,12.83
2023-01-13T10:31:46.765Z,10.33
2023-01-13T10:34:16.742Z,9.07
2023-01-13T10:37:00.114Z,10.30
2023-01-13T10:39:30.113Z,8.80
2023-01-13T10:42:05.097Z,8.90
2023-01-13T10:44:33.145Z,9.77
2023-01-13T10:47:01.165Z,12.10
2023-01-13T10:49:33.053Z,8.93
2023-01-13T10:52:02.151Z,11.70
2023-01-13T10:54:32.865Z,9.30
2023-01-13T10:57:20.629Z,6.60
2023-01-13T10:59:48.805Z,6.03
2023-01-13T11:02:26.435Z,8.27
2023-01-13T11:05:17.324Z,10.27
2023-01-13T11:07:52.482Z,10.43
2023-01-13T11:10:27.395Z,9.20
2023-01-13T11:13:00.678Z,11.80
2023-01-13T11:15:40.873Z,9.80
2023-01-13T11:18:16.066Z,14.40
2023-01-13T11:20:47.335Z,10.03
2023-01-13T11:23:21.867Z,9.27
2023-01-13T11:25:57.655Z,9.30
2023-01-13T11:28:38.474Z,8.57
2023-01-13T11:31:14.578Z,8.37
2023-01-13T11:33:46.243Z,4.90
2023-01-13T11:36:20.591Z,9.63
2023-01-13T11:38:51.407Z,11.40
2023-01-13T11:41:31.679Z,8.47
2023-01-13T11:44:13.768Z,8.50
2023-01-13T11:46:42.364Z,5.97
2023-01-13T11:49:17.421Z,9.07
2023-01-13T11:51:51.091Z,8.70
2023-01-13T11:54:46.000Z,7.67
2023-01-13T11:57:32.366Z,7.30
2023-01-13T12:00:20.242Z,6.00
2023-01-13T12:02:56.997Z,8.03
2023-01-13T12:05:35.224Z,11.13
2023-01-13T12:08:18.843Z,10.60
2023-01-13T12:10:58.438Z,9.90
2023-01-13T12:13:38.863Z,8.87
2023-01-13T12:16:23.481Z,6.67
2023-01-13T12:19:27.871Z,8.70
2023-01-13T12:22:12.019Z,9.40
2023-01-13T12:24:46.989Z,7.27
2023-01-13T12:27:21.353Z,11.27
2023-01-13T12:29:55.325Z,6.97
2023-01-13T12:32:29.781Z,10.77
2023-01-13T12:35:12.319Z,10.47
2023-01-13T12:37:48.044Z,8.70
2023-01-13T12:40:25.674Z,9.77
2023-01-13T12:43:20.456Z,10.57
2023-01-13T12:45:50.068Z,8.57
2023-01-13T12:49:02.973Z,9.37
2023-01-13T12:51:33.673Z,7.47
2023-01-13T12:54:03.364Z,9.73
2023-01-13T12:56:44.431Z,8.37
2023-01-13T12:59:48.996Z,9.80
2023-01-13T13:02:36.136Z,9.27
2023-01-13T13:05:47.823Z,6.50
2023-01-13T13:08:25.940Z,7.70
2023-01-13T13:11:07.614Z,9.17
2023-01-13T13:13:44.427Z,7.70
2023-01-13T13:16:38.363Z,9.53
2023-01-13T13:19:46.010Z,5.83
2023-01-13T13:22:22.363Z,10.73
2023-01-13T13:25:22.716Z,8.60
2023-01-13T13:28:12.019Z,9.97
2023-01-13T13:30:46.451Z,9.23
2023-01-13T13:33:32.607Z,5.37
2023-01-13T13:36:13.999Z,7.10
2023-01-13T13:39:21.386Z,7.47
2023-01-13T13:42:11.990Z,10.20
2023-01-13T13:44:57.726Z,9.73
2023-01-13T13:47:25.794Z,6.37
2023-01-13T13:49:55.432Z,6.70
2023-01-13T13:52:32.154Z,8.50
2023-01-13T13:55:07.495Z,9.93
2023-01-13T13:57:39.890Z,7.97
2023-01-13T14:00:20.118Z,9.27
2023-01-13T14:02:51.861Z,9.20
2023-01-13T14:05:22.693Z,7.67
2023-01-13T14:08:01.594Z,10.27
2023-01-13T14:10:35.623Z,7.07
2023-01-13T14:13:13.790Z,6.57
2023-01-13T14:15:42.102Z,7.53
2023-01-13T14:18:14.545Z,6.20
2023-01-13T14:20:42.774Z,9.00
2023-01-13T14:23:17.337Z,9.03
2023-01-13T14:25:49.047Z,9.63
2023-01-13T14:28:26.460Z,8.47
2023-01-13T14:30:55.484Z,6.93
2023-01-13T14:33:29.621Z,4.70
2023-01-13T14:36:18.546Z,3.60
2023-01-13T14:38:49.101Z,3.40
2023-01-13T14:41:20.165Z,3.30
2023-01-13T14:43:49.620Z,2.73
2023-01-13T14:46:20.989Z,3.63
2023-01-13T14:48:51.357Z,2.50
2023-01-13T14:51:26.638Z,2.27
2023-01-13T14:53:57.362Z,4.00
2023-01-13T14:56:47.229Z,7.70
2023-01-13T14:59:55.359Z,10.60
2023-01-13T15:02:48.493Z,9.37
2023-01-13T15:05:42.747Z,9.53
2023-01-13T15:08:34.601Z,7.90
2023-01-13T15:11:06.550Z,7.77
2023-01-13T15:13:47.855Z,10.23
2023-01-13T15:16:24.894Z,7.43
2023-01-13T15:18:53.550Z,15.30
2023-01-13T15:21:22.026Z,8.80
2023-01-13T15:23:50.050Z,5.20
2023-01-13T15:26:25.240Z,4.43
2023-01-13T15:28:54.441Z,5.10
2023-01-13T15:31:23.386Z,8.63
2023-01-13T15:33:51.870Z,6.27
2023-01-13T15:36:28.331Z,5.20
2023-01-13T15:38:56.842Z,3.00
2023-01-13T15:41:46.227Z,4.40
2023-01-13T15:44:33.298Z,4.03
2023-01-13T15:47:03.874Z,4.53
2023-01-13T15:49:36.178Z,5.07
2023-01-13T15:52:05.575Z,5.63
2023-01-13T15:54:33.529Z,4.47
2023-01-13T15:57:02.884Z,5.43
2023-01-13T15:59:30.938Z,4.43
2023-01-13T16:01:59.003Z,5.43
2023-01-13T16:04:27.018Z,3.57
2023-01-13T16:06:55.388Z,4.80
2023-01-13T16:09:23.697Z,5.00
2023-01-13T16:11:51.706Z,4.93
2023-01-13T16:14:21.048Z,6.40
2023-01-13T16:16:49.040Z,5.37
2023-01-13T16:19:17.008Z,6.23
2023-01-13T16:21:45.339Z,6.50
2023-01-13T16:24:13.302Z,5.93
2023-01-13T16:26:41.320Z,5.60
2023-01-13T16:29:12.565Z,7.23
2023-01-13T16:31:42.003Z,6.10
2023-01-13T16:34:09.991Z,3.50
2023-01-13T16:36:38.273Z,7.30
2023-01-13T16:39:20.097Z,5.63
2023-01-13T16:41:48.098Z,4.73
2023-01-13T16:44:16.119Z,5.60
2023-01-13T16:46:45.851Z,6.10
2023-01-13T16:49:15.912Z,9.50
2023-01-13T16:51:44.195Z,9.63
2023-01-13T16:54:12.884Z,6.37
2023-01-13T16:56:40.885Z,6.27
2023-01-13T16:59:11.372Z,5.10
2023-01-13T17:01:41.442Z,7.10
2023-01-13T17:04:16.348Z,8.20
2023-01-13T17:06:49.224Z,6.90
2023-01-13T17:09:18.518Z,4.33
2023-01-13T17:11:46.483Z,6.73
2023-01-13T17:14:19.078Z,6.63
2023-01-13T17:16:47.912Z,9.20
2023-01-13T17:19:18.231Z,7.10
2023-01-13T17:21:47.076Z,8.70
2023-01-13T17:24:15.565Z,7.37
2023-01-13T17:26:47.523Z,8.77
2023-01-13T17:29:18.591Z,8.63
2023-01-13T17:31:46.740Z,7.70
2023-01-13T17:34:15.350Z,8.30
2023-01-13T17:36:44.682Z,7.30
2023-01-13T17:39:17.451Z,4.80
2023-01-13T17:41:45.810Z,5.37
2023-01-13T17:44:14.771Z,10.23
2023-01-13T17:46:42.996Z,9.53
2023-01-13T17:49:11.687Z,5.90
2023-01-13T17:51:39.716Z,9.30
2023-01-13T17:54:11.950Z,6.07
2023-01-13T17:56:40.380Z,10.37
2023-01-13T17:59:10.365Z,10.80
2023-01-13T18:01:39.263Z,8.77
2023-01-13T18:04:08.149Z,6.30
2023-01-13T18:06:36.159Z,5.40
2023-01-13T18:09:04.407Z,6.60
2023-01-13T18:11:33.757Z,5.83
2023-01-13T18:14:01.771Z,6.13
2023-01-13T18:16:31.119Z,7.80
2023-01-13T18:19:20.173Z,5.87
2023-01-13T18:22:06.027Z,4.93
2023-01-13T18:24:51.705Z,5.77
2023-01-13T18:27:24.791Z,5.00
2023-01-13T18:29:54.279Z,2.93
2023-01-13T18:32:23.627Z,2.67
2023-01-13T18:35:01.619Z,4.10
2023-01-13T18:37:35.255Z,3.50
2023-01-13T18:40:03.250Z,5.73
2023-01-13T18:42:50.051Z,5.27
2023-01-13T18:45:18.370Z,3.63
2023-01-13T18:47:46.359Z,2.63
2023-01-13T18:50:14.755Z,5.03
2023-01-13T18:52:42.718Z,3.20
2023-01-13T18:55:11.422Z,5.03
2023-01-13T18:57:41.092Z,5.63
2023-01-13T19:00:11.717Z,5.27
2023-01-13T19:02:39.833Z,5.40
2023-01-13T19:05:08.636Z,7.50
2023-01-13T19:07:36.994Z,6.70
2023-01-13T19:10:08.203Z,5.60
2023-01-13T19:12:36.501Z,6.27
2023-01-13T19:15:06.609Z,3.80
2023-01-13T19:17:36.120Z,7.90
2023-01-13T19:20:05.218Z,5.43
2023-01-13T19:22:34.925Z,5.43
2023-01-13T19:25:06.533Z,4.90
2023-01-13T19:27:35.005Z,4.30
2023-01-13T19:30:04.055Z,6.10
2023-01-13T19:32:34.275Z,8.97
2023-01-13T19:35:02.226Z,4.90
2023-01-13T19:37:31.441Z,9.87
2023-01-13T19:39:59.798Z,9.30
2023-01-13T19:42:45.364Z,8.17
2023-01-13T19:45:27.546Z,6.10
2023-01-13T19:47:57.332Z,8.80
2023-01-13T19:50:25.957Z,9.47
2023-01-13T19:52:55.466Z,6.87
2023-01-13T19:55:23.615Z,10.27
2023-01-13T19:57:51.581Z,8.90
2023-01-13T20:00:20.926Z,8.80
2023-01-13T20:02:51.847Z,9.47
2023-01-13T20:05:25.938Z,10.00
2023-01-13T20:07:54.153Z,8.13
2023-01-13T20:10:23.877Z,10.50
2023-01-13T20:12:52.046Z,9.20
2023-01-13T20:15:20.052Z,8.03
2023-01-13T20:17:48.058Z,7.83
2023-01-13T20:20:16.813Z,8.37
2023-01-13T20:22:46.200Z,12.93
2023-01-13T20:25:16.772Z,11.20
2023-01-13T20:27:45.979Z,10.57
2023-01-13T20:30:14.542Z,9.57
2023-01-13T20:32:43.052Z,11.20
2023-01-13T20:35:11.730Z,12.90
2023-01-13T20:37:41.315Z,11.73
2023-01-13T20:40:14.644Z,10.37
2023-01-13T20:42:44.852Z,8.00
2023-01-13T20:45:17.132Z,9.67
2023-01-13T20:47:46.019Z,11.03
2023-01-13T20:50:14.498Z,7.50
2023-01-13T20:52:42.500Z,7.67
2023-01-13T20:55:12.355Z,9.37
2023-01-13T20:57:40.777Z,8.73
2023-01-13T21:00:11.350Z,11.07
2023-01-13T21:02:41.689Z,6.73
2023-01-13T21:05:10.138Z,10.07
2023-01-13T21:07:38.159Z,13.67
2023-01-13T21:10:06.910Z,11.80
2023-01-13T21:12:53.687Z,11.43
2023-01-13T21:15:22.733Z,13.00
2023-01-13T21:18:09.713Z,11.17
2023-01-13T21:20:39.446Z,11.50
2023-01-13T21:23:07.752Z,12.87
2023-01-13T21:25:37.099Z,11.63
2023-01-13T21:28:07.758Z,12.80
2023-01-13T21:30:37.591Z,10.90
2023-01-13T21:33:06.329Z,13.30
2023-01-13T21:35:34.526Z,14.37
2023-01-13T21:38:02.525Z,9.27
2023-01-13T21:40:30.487Z,10.80
2023-01-13T21:43:16.090Z,17.50
2023-01-13T21:46:05.308Z,12.83
2023-01-13T21:48:33.652Z,11.47
2023-01-13T21:51:02.149Z,13.33
2023-01-13T21:53:30.336Z,10.83
2023-01-13T21:55:58.402Z,9.67
2023-01-13T21:58:26.396Z,9.37
2023-01-13T22:00:56.050Z,9.20
2023-01-13T22:03:24.115Z,10.17
2023-01-13T22:05:55.988Z,10.07
2023-01-13T22:08:23.958Z,12.63
2023-01-13T22:10:58.511Z,11.67
2023-01-13T22:13:48.030Z,11.13
2023-01-13T22:16:18.072Z,8.50
2023-01-13T22:18:46.036Z,11.60
2023-01-13T22:21:14.073Z,14.27
2023-01-13T22:23:42.053Z,12.07
2023-01-13T22:26:10.424Z,11.40
2023-01-13T22:28:42.926Z,10.27
2023-01-13T22:31:12.143Z,10.13
2023-01-13T22:33:42.442Z,9.90
2023-01-13T22:36:11.232Z,13.60
2023-01-13T22:38:39.234Z,12.97
2023-01-13T22:41:09.030Z,13.37
2023-01-13T22:43:38.278Z,12.97
2023-01-13T22:46:08.222Z,15.40
2023-01-13T22:48:36.727Z,11.53
2023-01-13T22:51:10.879Z,13.10
2023-01-13T22:53:39.501Z,11.23
2023-01-13T22:56:08.629Z,16.17
2023-01-13T22:58:36.610Z,13.67
2023-01-13T23:01:10.014Z,13.63
2023-01-13T23:03:38.377Z,13.83
2023-01-13T23:06:06.810Z,14.60
2023-01-13T23:08:36.585Z,13.40
2023-01-13T23:11:06.345Z,14.43
2023-01-13T23:13:34.545Z,14.87
2023-01-13T23:16:04.365Z,16.70
2023-01-13T23:18:34.102Z,8.57
2023-01-13T23:21:06.380Z,7.83
2023-01-13T23:23:35.822Z,16.03
2023-01-13T23:26:04.534Z,18.70
2023-01-13T23:28:33.210Z,14.17
2023-01-13T23:31:01.550Z,14.50
2023-01-13T23:33:29.572Z,11.80
2023-01-13T23:35:57.874Z,19.40
2023-01-13T23:38:26.513Z,11.00
2023-01-13T23:40:55.871Z,13.57
2023-01-13T23:43:26.170Z,13.57
2023-01-13T23:46:01.979Z,10.20
2023-01-13T23:51:13.585Z,10.73
2023-01-13T23:53:43.524Z,12.53
2023-01-13T23:56:15.254Z,13.10
2023-01-13T23:58:44.230Z,11.30
